Time;durP1;ratioP1;P1;durP2;ratioP2;P2;SDS_P1;SDS_P2;PMS_P1;PMS_P2;Temp;Humidity;BMP_temperature;BMP_pressure;BME280_temperature;BME280_humidity;BME280_pressure;Samples;Min_cycle;Max_cycle;Signal;HPM_P1;HPM_P2
2022/03/18 00:00:29;;;;;;;34.22;4.32;;;;;;;;;;5000430;28;20034;-57
2022/03/18 00:02:55;;;;;;;45.40;4.82;;;;;;;;;;5000026;28;20052;-58
2022/03/18 00:05:22;;;;;;;41.97;5.13;;;;;;;;;;5002473;28;20413;-58
2022/03/18 00:07:47;;;;;;;31.25;4.93;;;;;;;;;;5004181;28;20034;-57
2022/03/18 00:10:15;;;;;;;43.47;6.50;;;;;;;;;;4999254;28;20034;-57
2022/03/18 00:12:41;;;;;;;33.20;5.43;;;;;;;;;;4997094;28;20083;-57
2022/03/18 00:15:09;;;;;;;33.13;6.07;;;;;;;;;;4998514;28;20444;-57
2022/03/18 00:17:34;;;;;;;30.50;5.60;;;;;;;;;;4999293;28;20044;-57
2022/03/18 00:20:00;;;;;;;39.47;5.95;;;;;;;;;;4999329;28;20150;-57
2022/03/18 00:22:26;;;;;;;45.58;5.65;;;;;;;;;;5002379;28;20492;-58
2022/03/18 00:24:51;;;;;;;35.85;5.25;;;;;;;;;;4997211;28;20034;-57
2022/03/18 00:27:17;;;;;;;34.88;5.68;;;;;;;;;;5002368;28;20074;-57
2022/03/18 00:29:42;;;;;;;34.60;5.50;;;;;;;;;;4997444;28;20041;-58
2022/03/18 00:32:09;;;;;;;42.05;4.72;;;;;;;;;;4996482;28;20037;-57
2022/03/18 00:34:35;;;;;;;47.17;4.72;;;;;;;;;;5000537;28;20027;-58
2022/03/18 00:37:00;;;;;;;37.28;5.07;;;;;;;;;;5002807;28;20296;-57
2022/03/18 00:39:26;;;;;;;26.55;5.10;;;;;;;;;;5008254;28;20037;-57
2022/03/18 00:41:51;;;;;;;47.42;6.78;;;;;;;;;;4996307;28;20046;-57
2022/03/18 00:44:17;;;;;;;42.50;7.43;;;;;;;;;;4999785;28;20037;-57
2022/03/18 00:46:43;;;;;;;38.33;6.13;;;;;;;;;;5001276;28;20543;-57
2022/03/18 00:52:05;;;;;;;59.88;7.65;;;;;;;;;;4995168;28;20393;-57
2022/03/18 00:54:35;;;;;;;46.67;7.00;;;;;;;;;;4997481;28;20445;-57
2022/03/18 00:57:02;;;;;;;47.88;8.23;;;;;;;;;;5001607;28;20469;-57
2022/03/18 00:59:28;;;;;;;46.85;6.55;;;;;;;;;;4985065;28;20507;-57
2022/03/18 01:01:55;;;;;;;43.42;6.07;;;;;;;;;;4956947;28;20156;-57
2022/03/18 01:04:21;;;;;;;49.72;5.97;;;;;;;;;;4959446;28;20051;-57
2022/03/18 01:06:49;;;;;;;48.90;6.85;;;;;;;;;;4958681;28;20050;-58
2022/03/18 01:09:17;;;;;;;39.33;5.15;;;;;;;;;;4962646;28;20042;-58
2022/03/18 01:11:43;;;;;;;43.20;5.07;;;;;;;;;;4962767;28;20027;-57
2022/03/18 01:14:08;;;;;;;33.67;4.85;;;;;;;;;;4960352;28;20041;-57
2022/03/18 01:16:34;;;;;;;50.42;6.18;;;;;;;;;;4952958;28;20030;-57
2022/03/18 01:19:00;;;;;;;34.10;4.63;;;;;;;;;;4957487;28;20074;-57
2022/03/18 01:21:25;;;;;;;45.28;5.07;;;;;;;;;;4960586;28;20491;-57
2022/03/18 01:23:51;;;;;;;39.67;4.65;;;;;;;;;;4964260;28;20393;-57
2022/03/18 01:26:24;;;;;;;58.75;5.28;;;;;;;;;;4963743;28;20030;-57
2022/03/18 01:28:50;;;;;;;26.40;3.38;;;;;;;;;;4961800;28;20532;-57
2022/03/18 01:31:15;;;;;;;41.42;4.45;;;;;;;;;;4952549;28;20035;-57
2022/03/18 01:33:41;;;;;;;35.05;4.50;;;;;;;;;;4957692;28;20560;-57
2022/03/18 01:36:06;;;;;;;29.50;4.30;;;;;;;;;;4955546;28;20065;-57
2022/03/18 01:38:32;;;;;;;36.50;5.03;;;;;;;;;;4959955;28;20553;-57
2022/03/18 01:40:58;;;;;;;38.08;4.53;;;;;;;;;;4955233;28;20030;-57
2022/03/18 01:43:24;;;;;;;40.17;4.45;;;;;;;;;;4960950;28;20030;-57
2022/03/18 01:45:51;;;;;;;37.80;3.67;;;;;;;;;;4960761;28;20031;-57
2022/03/18 01:48:17;;;;;;;43.42;3.80;;;;;;;;;;4966014;28;20035;-57
2022/03/18 01:50:43;;;;;;;25.50;3.38;;;;;;;;;;4965841;28;20073;-57
2022/03/18 01:53:10;;;;;;;44.17;3.78;;;;;;;;;;4960398;28;20406;-57
2022/03/18 01:55:36;;;;;;;33.45;3.53;;;;;;;;;;4966573;28;20119;-57
2022/03/18 01:58:03;;;;;;;26.75;3.38;;;;;;;;;;4966178;28;20156;-57
2022/03/18 02:00:29;;;;;;;35.28;3.95;;;;;;;;;;4959607;28;20039;-57
2022/03/18 02:02:54;;;;;;;41.03;4.18;;;;;;;;;;4960234;28;20481;-57
2022/03/18 02:05:20;;;;;;;23.52;3.58;;;;;;;;;;4969156;28;20444;-57
2022/03/18 02:07:46;;;;;;;29.73;3.45;;;;;;;;;;4968836;28;20047;-57
2022/03/18 02:10:12;;;;;;;51.28;4.97;;;;;;;;;;4960440;28;20031;-57
2022/03/18 02:12:41;;;;;;;33.33;3.63;;;;;;;;;;4965462;28;20409;-57
2022/03/18 02:15:09;;;;;;;44.55;4.43;;;;;;;;;;4964709;28;20039;-57
2022/03/18 02:17:35;;;;;;;49.38;4.60;;;;;;;;;;4963968;28;20122;-57
2022/03/18 02:20:00;;;;;;;38.42;3.55;;;;;;;;;;4966443;28;20041;-57
2022/03/18 02:22:26;;;;;;;43.35;4.32;;;;;;;;;;4962512;28;20050;-57
2022/03/18 02:24:54;;;;;;;23.83;3.30;;;;;;;;;;4964134;28;20031;-57
2022/03/18 02:27:20;;;;;;;43.72;3.30;;;;;;;;;;4959894;28;20062;-57
2022/03/18 02:29:46;;;;;;;32.88;3.40;;;;;;;;;;4965150;28;20070;-57
2022/03/18 02:32:13;;;;;;;29.63;4.30;;;;;;;;;;4961088;28;20291;-57
2022/03/18 02:34:39;;;;;;;23.85;3.45;;;;;;;;;;4960280;28;20034;-57
2022/03/18 02:37:06;;;;;;;29.67;4.70;;;;;;;;;;4964625;28;20023;-57
2022/03/18 02:39:32;;;;;;;28.20;3.50;;;;;;;;;;4965747;28;20122;-57
2022/03/18 02:41:58;;;;;;;20.23;3.05;;;;;;;;;;4963408;28;20478;-57
2022/03/18 02:44:23;;;;;;;37.67;4.72;;;;;;;;;;4962474;28;20049;-57
2022/03/18 02:46:50;;;;;;;49.60;5.00;;;;;;;;;;4961048;28;20134;-56
2022/03/18 02:49:15;;;;;;;40.85;5.25;;;;;;;;;;4961347;28;20069;-57
2022/03/18 02:51:41;;;;;;;44.45;4.05;;;;;;;;;;4955530;28;21172;-57
2022/03/18 02:54:08;;;;;;;32.40;3.80;;;;;;;;;;4960226;28;20041;-57
2022/03/18 02:56:34;;;;;;;32.22;3.80;;;;;;;;;;4964979;28;20126;-57
2022/03/18 02:59:01;;;;;;;36.60;3.63;;;;;;;;;;4961257;28;20131;-58
2022/03/18 03:01:27;;;;;;;41.35;3.50;;;;;;;;;;4958886;28;20187;-57
2022/03/18 03:03:53;;;;;;;24.65;3.42;;;;;;;;;;4959221;28;20160;-57
2022/03/18 03:09:03;;;;;;;34.67;2.70;;;;;;;;;;4959890;28;20597;-57
2022/03/18 03:11:29;;;;;;;34.22;3.33;;;;;;;;;;4961575;28;20137;-57
2022/03/18 03:13:55;;;;;;;37.60;3.65;;;;;;;;;;4956688;28;20498;-57
2022/03/18 03:16:20;;;;;;;19.13;2.22;;;;;;;;;;4961626;28;20229;-57
2022/03/18 03:18:46;;;;;;;39.13;2.85;;;;;;;;;;4958511;28;20417;-57
2022/03/18 03:21:13;;;;;;;29.80;2.20;;;;;;;;;;4958437;28;20394;-57
2022/03/18 03:23:38;;;;;;;30.05;3.28;;;;;;;;;;4965263;28;20575;-57
2022/03/18 03:26:04;;;;;;;29.45;3.97;;;;;;;;;;4962149;28;20073;-57
2022/03/18 03:28:30;;;;;;;37.45;3.25;;;;;;;;;;4960784;28;20043;-57
2022/03/18 03:30:55;;;;;;;41.70;3.42;;;;;;;;;;4964671;28;20026;-57
2022/03/18 03:33:21;;;;;;;35.95;2.78;;;;;;;;;;4958974;28;20038;-57
2022/03/18 03:35:47;;;;;;;35.53;2.65;;;;;;;;;;4964139;28;20027;-57
2022/03/18 03:38:14;;;;;;;24.73;2.58;;;;;;;;;;4960800;28;20046;-57
2022/03/18 03:40:40;;;;;;;37.25;3.42;;;;;;;;;;4958328;28;20391;-57
2022/03/18 03:43:08;;;;;;;30.85;3.42;;;;;;;;;;4960151;28;20034;-57
2022/03/18 03:45:34;;;;;;;29.92;2.80;;;;;;;;;;4958484;28;20092;-57
2022/03/18 03:47:59;;;;;;;45.17;4.50;;;;;;;;;;4962520;28;20548;-57
2022/03/18 03:50:25;;;;;;;30.90;2.38;;;;;;;;;;4960965;28;20490;-57
2022/03/18 03:52:50;;;;;;;35.45;3.22;;;;;;;;;;4958424;28;20118;-57
2022/03/18 03:55:16;;;;;;;24.55;2.53;;;;;;;;;;4965706;28;20039;-57
2022/03/18 03:57:41;;;;;;;28.90;2.53;;;;;;;;;;4966077;28;20046;-56
2022/03/18 04:00:08;;;;;;;20.38;1.83;;;;;;;;;;4961378;28;20031;-57
2022/03/18 04:02:34;;;;;;;20.52;3.28;;;;;;;;;;4962201;28;20074;-57
2022/03/18 04:05:00;;;;;;;31.38;3.15;;;;;;;;;;4961996;28;20131;-57
2022/03/18 04:07:26;;;;;;;44.20;3.58;;;;;;;;;;4966319;28;20114;-57
2022/03/18 04:09:54;;;;;;;35.40;2.78;;;;;;;;;;4958834;28;20027;-57
2022/03/18 04:12:22;;;;;;;46.72;3.55;;;;;;;;;;4959419;28;20081;-57
2022/03/18 04:14:48;;;;;;;36.47;3.47;;;;;;;;;;4960527;28;20109;-57
2022/03/18 04:17:14;;;;;;;48.65;5.15;;;;;;;;;;4964344;28;20133;-57
2022/03/18 04:19:39;;;;;;;42.63;4.47;;;;;;;;;;4961193;28;20110;-57
2022/03/18 04:22:06;;;;;;;44.83;5.85;;;;;;;;;;4993347;28;20478;-57
2022/03/18 04:24:31;;;;;;;37.58;3.60;;;;;;;;;;4958313;28;20113;-57
2022/03/18 04:26:57;;;;;;;41.88;3.75;;;;;;;;;;4962803;28;20477;-57
2022/03/18 04:29:23;;;;;;;30.20;3.00;;;;;;;;;;4962928;28;20049;-57
2022/03/18 04:31:49;;;;;;;29.92;3.65;;;;;;;;;;4962622;28;20026;-57
2022/03/18 04:34:16;;;;;;;29.70;3.40;;;;;;;;;;4961268;28;21287;-57
2022/03/18 04:36:42;;;;;;;39.38;3.88;;;;;;;;;;4959630;28;20506;-58
2022/03/18 04:39:08;;;;;;;32.47;3.13;;;;;;;;;;4959773;28;20049;-57
2022/03/18 04:41:33;;;;;;;24.10;2.90;;;;;;;;;;4960510;28;20489;-58
2022/03/18 04:44:01;;;;;;;28.58;3.00;;;;;;;;;;4960118;28;20035;-57
2022/03/18 04:46:28;;;;;;;32.08;3.35;;;;;;;;;;4960901;28;20047;-57
2022/03/18 04:48:54;;;;;;;37.20;2.63;;;;;;;;;;4966667;28;20039;-57
2022/03/18 04:51:20;;;;;;;27.42;3.70;;;;;;;;;;4954182;28;20319;-57
2022/03/18 04:53:46;;;;;;;51.97;3.58;;;;;;;;;;4959660;28;20421;-57
2022/03/18 04:57:15;;;;;;;51.58;4.10;;;;;;;;;;4960135;28;20042;-57
2022/03/18 04:58:57;;;;;;;33.45;2.78;;;;;;;;;;4955744;28;20042;-57
2022/03/18 05:01:23;;;;;;;27.80;3.15;;;;;;;;;;4959062;28;20046;-56
2022/03/18 05:03:48;;;;;;;34.65;3.42;;;;;;;;;;4961202;28;20042;-57
2022/03/18 05:06:14;;;;;;;35.17;3.38;;;;;;;;;;4970497;28;20038;-57
2022/03/18 05:08:39;;;;;;;38.58;3.67;;;;;;;;;;4964939;28;20109;-57
2022/03/18 05:11:05;;;;;;;27.25;3.70;;;;;;;;;;4961616;28;20532;-57
2022/03/18 05:13:30;;;;;;;37.08;3.50;;;;;;;;;;4961860;28;20045;-57
2022/03/18 05:15:56;;;;;;;20.73;3.22;;;;;;;;;;4954433;28;20035;-57
2022/03/18 05:18:22;;;;;;;36.55;3.13;;;;;;;;;;4962271;28;20122;-58
2022/03/18 05:20:48;;;;;;;30.52;3.55;;;;;;;;;;4964172;28;20039;-57
2022/03/18 05:23:14;;;;;;;39.90;3.25;;;;;;;;;;4960267;28;20047;-57
2022/03/18 05:25:40;;;;;;;45.17;4.63;;;;;;;;;;4969628;28;20048;-57
2022/03/18 05:28:07;;;;;;;47.72;4.65;;;;;;;;;;4960279;28;20035;-57
2022/03/18 05:30:33;;;;;;;49.80;3.72;;;;;;;;;;4963342;28;20031;-57
2022/03/18 05:32:59;;;;;;;37.30;3.22;;;;;;;;;;4964658;28;20029;-57
2022/03/18 05:35:25;;;;;;;42.05;3.63;;;;;;;;;;4967486;28;20039;-57
2022/03/18 05:37:50;;;;;;;27.02;3.40;;;;;;;;;;4981558;28;20029;-58
2022/03/18 05:40:18;;;;;;;43.17;5.00;;;;;;;;;;4966079;28;20034;-57
2022/03/18 05:42:45;;;;;;;38.60;4.25;;;;;;;;;;4961651;28;20047;-57
2022/03/18 05:45:11;;;;;;;41.45;4.28;;;;;;;;;;4967946;28;20430;-57
2022/03/18 05:47:37;;;;;;;28.55;3.60;;;;;;;;;;4967212;28;20034;-57
2022/03/18 05:50:05;;;;;;;42.90;5.18;;;;;;;;;;4961882;28;20567;-58
2022/03/18 05:52:32;;;;;;;30.13;3.40;;;;;;;;;;4955134;28;20054;-58
2022/03/18 05:54:57;;;;;;;20.17;3.45;;;;;;;;;;4971024;28;20431;-57
2022/03/18 05:57:27;;;;;;;29.33;3.38;;;;;;;;;;4964138;28;20076;-57
2022/03/18 05:59:55;;;;;;;30.17;3.53;;;;;;;;;;4961995;28;20036;-57
2022/03/18 06:02:21;;;;;;;39.65;4.45;;;;;;;;;;4956394;28;20177;-57
2022/03/18 06:04:47;;;;;;;34.00;4.07;;;;;;;;;;4966983;28;20035;-57
2022/03/18 06:07:14;;;;;;;51.28;4.28;;;;;;;;;;4957225;28;20080;-57
2022/03/18 06:12:24;;;;;;;30.85;5.22;;;;;;;;;;4961745;28;20130;-57
2022/03/18 06:14:49;;;;;;;31.05;4.38;;;;;;;;;;4959681;28;20508;-57
2022/03/18 06:17:15;;;;;;;22.00;3.35;;;;;;;;;;4958483;28;20059;-57
2022/03/18 06:19:41;;;;;;;36.38;3.78;;;;;;;;;;4960625;28;20058;-57
2022/03/18 06:22:08;;;;;;;45.30;5.57;;;;;;;;;;4959363;28;20067;-57
2022/03/18 06:24:34;;;;;;;33.63;4.25;;;;;;;;;;4960566;28;20077;-57
2022/03/18 06:27:01;;;;;;;38.72;3.90;;;;;;;;;;4968438;28;20066;-56
2022/03/18 06:29:27;;;;;;;29.92;3.75;;;;;;;;;;4961447;28;20027;-57
2022/03/18 06:31:55;;;;;;;33.50;4.10;;;;;;;;;;4957478;28;20577;-57
2022/03/18 06:34:20;;;;;;;41.88;4.35;;;;;;;;;;4959096;28;20401;-57
2022/03/18 06:36:46;;;;;;;35.58;4.43;;;;;;;;;;4960073;28;20034;-57
2022/03/18 06:39:12;;;;;;;44.17;4.18;;;;;;;;;;4962069;28;20069;-57
2022/03/18 06:41:38;;;;;;;43.25;4.00;;;;;;;;;;4957255;28;20032;-57
2022/03/18 06:44:04;;;;;;;35.03;3.70;;;;;;;;;;4959281;28;20425;-57
2022/03/18 06:46:30;;;;;;;28.88;4.07;;;;;;;;;;4960345;28;20497;-57
2022/03/18 06:48:55;;;;;;;37.85;3.78;;;;;;;;;;4959566;28;20038;-57
2022/03/18 06:51:21;;;;;;;36.33;3.50;;;;;;;;;;4954916;28;20027;-57
2022/03/18 06:53:46;;;;;;;30.88;4.68;;;;;;;;;;4959598;28;20046;-57
2022/03/18 06:56:15;;;;;;;44.03;4.13;;;;;;;;;;4962442;28;20113;-57
2022/03/18 06:58:42;;;;;;;34.13;3.90;;;;;;;;;;4958232;28;20122;-57
2022/03/18 07:01:07;;;;;;;47.72;4.68;;;;;;;;;;4960056;28;20059;-57
2022/03/18 07:03:33;;;;;;;40.35;5.28;;;;;;;;;;4957077;28;20113;-57
2022/03/18 07:05:58;;;;;;;37.28;4.07;;;;;;;;;;4959872;28;20035;-57
2022/03/18 07:08:24;;;;;;;25.63;4.03;;;;;;;;;;4959824;28;20057;-57
2022/03/18 07:10:50;;;;;;;39.38;3.47;;;;;;;;;;4963771;28;20111;-57
2022/03/18 07:13:16;;;;;;;33.60;4.22;;;;;;;;;;4963067;28;20046;-57
2022/03/18 07:15:42;;;;;;;43.65;4.25;;;;;;;;;;4960140;28;20506;-57
2022/03/18 07:18:07;;;;;;;31.77;3.85;;;;;;;;;;4959116;28;20101;-57
2022/03/18 07:20:36;;;;;;;46.28;4.57;;;;;;;;;;4960405;28;20043;-57
2022/03/18 07:23:12;;;;;;;25.77;4.38;;;;;;;;;;4959988;28;20039;-57
2022/03/18 07:25:40;;;;;;;29.33;3.78;;;;;;;;;;4958543;28;20489;-57
2022/03/18 07:28:09;;;;;;;42.33;4.95;;;;;;;;;;4991815;28;20510;-57
2022/03/18 07:30:36;;;;;;;31.73;4.18;;;;;;;;;;4987104;28;20085;-57
2022/03/18 07:33:03;;;;;;;39.03;3.78;;;;;;;;;;4960565;28;20033;-57
2022/03/18 07:35:28;;;;;;;36.95;3.80;;;;;;;;;;4966341;28;20386;-57
2022/03/18 07:37:54;;;;;;;48.17;5.00;;;;;;;;;;4957190;28;20045;-57
2022/03/18 07:40:20;;;;;;;38.38;3.47;;;;;;;;;;4959529;28;20043;-57
2022/03/18 07:42:50;;;;;;;47.88;4.40;;;;;;;;;;4959334;28;20035;-57
2022/03/18 07:45:26;;;;;;;41.70;4.20;;;;;;;;;;4959338;28;20114;-57
2022/03/18 07:47:51;;;;;;;25.20;3.42;;;;;;;;;;4961233;28;20031;-57
2022/03/18 07:50:21;;;;;;;32.20;2.95;;;;;;;;;;4964144;28;20420;-58
2022/03/18 07:52:51;;;;;;;38.00;3.33;;;;;;;;;;4958300;28;20035;-57
2022/03/18 07:55:22;;;;;;;44.95;4.15;;;;;;;;;;4964035;28;20516;-57
2022/03/18 07:57:48;;;;;;;34.58;3.08;;;;;;;;;;4958949;28;20085;-57
2022/03/18 08:00:15;;;;;;;34.25;4.28;;;;;;;;;;4963876;28;20138;-57
2022/03/18 08:02:42;;;;;;;45.55;4.43;;;;;;;;;;4959091;28;20071;-57
2022/03/18 08:05:09;;;;;;;37.67;3.72;;;;;;;;;;4962103;28;20098;-57
2022/03/18 08:07:35;;;;;;;34.78;3.40;;;;;;;;;;4962374;28;20046;-58
2022/03/18 08:10:02;;;;;;;45.38;5.20;;;;;;;;;;4957108;28;20747;-58
2022/03/18 08:12:28;;;;;;;41.67;4.45;;;;;;;;;;4958999;28;20043;-57
2022/03/18 08:14:58;;;;;;;37.13;5.13;;;;;;;;;;4952090;28;20031;-57
2022/03/18 08:17:24;;;;;;;33.05;3.85;;;;;;;;;;4961207;28;20139;-57
2022/03/18 08:19:53;;;;;;;31.80;3.05;;;;;;;;;;4962784;28;20030;-57
2022/03/18 08:22:21;;;;;;;47.35;3.35;;;;;;;;;;4953395;28;20074;-57
2022/03/18 08:24:47;;;;;;;34.38;3.67;;;;;;;;;;4964969;28;20035;-57
2022/03/18 08:27:12;;;;;;;61.58;4.57;;;;;;;;;;4960401;28;20027;-57
2022/03/18 08:29:38;;;;;;;45.17;3.05;;;;;;;;;;4950971;28;20038;-57
2022/03/18 08:32:08;;;;;;;42.45;3.65;;;;;;;;;;4958459;28;20896;-58
2022/03/18 08:34:34;;;;;;;34.63;2.92;;;;;;;;;;4962694;28;20065;-58
2022/03/18 08:37:00;;;;;;;43.00;4.13;;;;;;;;;;4960386;28;20042;-57
2022/03/18 08:39:26;;;;;;;37.92;4.88;;;;;;;;;;4960958;28;20422;-57
2022/03/18 08:41:51;;;;;;;42.92;4.90;;;;;;;;;;4959006;28;20050;-58
2022/03/18 08:44:20;;;;;;;46.80;4.13;;;;;;;;;;4966510;28;20049;-57
2022/03/18 08:46:48;;;;;;;40.10;2.58;;;;;;;;;;4963968;28;20061;-57
2022/03/18 08:49:14;;;;;;;47.67;3.75;;;;;;;;;;4971560;28;20063;-57
2022/03/18 08:51:40;;;;;;;33.83;3.30;;;;;;;;;;4995166;28;20113;-58
2022/03/18 08:54:05;;;;;;;47.78;3.80;;;;;;;;;;4959591;28;20701;-58
2022/03/18 08:56:31;;;;;;;35.20;3.50;;;;;;;;;;4958995;28;20114;-57
2022/03/18 08:58:58;;;;;;;29.15;2.92;;;;;;;;;;4961094;28;20053;-58
2022/03/18 09:01:25;;;;;;;46.22;3.83;;;;;;;;;;4960457;28;20086;-58
2022/03/18 09:03:51;;;;;;;49.30;4.50;;;;;;;;;;4956913;28;20027;-57
2022/03/18 09:06:16;;;;;;;49.47;4.40;;;;;;;;;;4967044;28;20035;-62
2022/03/18 09:08:42;;;;;;;42.45;3.55;;;;;;;;;;4962142;28;20042;-57
2022/03/18 09:11:08;;;;;;;60.20;4.75;;;;;;;;;;4961355;28;20031;-57
2022/03/18 09:13:35;;;;;;;43.47;3.13;;;;;;;;;;4955281;28;20493;-57
2022/03/18 09:16:04;;;;;;;46.33;4.55;;;;;;;;;;4954048;28;20039;-56
2022/03/18 09:18:30;;;;;;;28.27;2.92;;;;;;;;;;4960326;28;20041;-56
2022/03/18 09:20:56;;;;;;;24.60;3.40;;;;;;;;;;4960825;28;20035;-57
2022/03/18 09:23:21;;;;;;;35.47;4.15;;;;;;;;;;4958851;28;20501;-57
2022/03/18 09:25:47;;;;;;;34.78;3.67;;;;;;;;;;4953463;28;20053;-57
2022/03/18 09:28:12;;;;;;;49.25;4.07;;;;;;;;;;4955423;28;20030;-56
2022/03/18 09:30:39;;;;;;;24.05;2.80;;;;;;;;;;4952826;28;20037;-57
2022/03/18 09:33:05;;;;;;;25.95;3.00;;;;;;;;;;4960625;28;20046;-57
2022/03/18 09:35:30;;;;;;;21.58;3.35;;;;;;;;;;4962368;28;20035;-57
2022/03/18 09:37:55;;;;;;;44.17;3.88;;;;;;;;;;4951732;28;20059;-57
2022/03/18 09:40:21;;;;;;;39.42;4.35;;;;;;;;;;4954051;28;20042;-57
2022/03/18 09:43:04;;;;;;;29.75;3.05;;;;;;;;;;4958017;28;20043;-57
2022/03/18 09:45:40;;;;;;;39.30;3.67;;;;;;;;;;4951653;28;20062;-57
2022/03/18 09:48:09;;;;;;;47.85;3.50;;;;;;;;;;4951319;28;20529;-57
2022/03/18 09:50:35;;;;;;;33.45;4.53;;;;;;;;;;4969317;28;20050;-57
2022/03/18 09:53:01;;;;;;;30.98;3.97;;;;;;;;;;4959867;28;20041;-57
2022/03/18 09:55:30;;;;;;;26.35;3.17;;;;;;;;;;4964592;28;20406;-57
2022/03/18 09:57:55;;;;;;;22.48;3.58;;;;;;;;;;4959631;28;20023;-57
2022/03/18 10:00:21;;;;;;;39.70;3.97;;;;;;;;;;4962958;28;20220;-57
2022/03/18 10:03:17;;;;;;;28.67;4.97;;;;;;;;;;4959397;28;20170;-57
2022/03/18 10:06:00;;;;;;;23.83;3.15;;;;;;;;;;4961703;28;20039;-58
2022/03/18 10:08:45;;;;;;;;;;;;;;;;;;4965335;28;20114;-57
2022/03/18 10:11:18;;;;;;;27.27;3.53;;;;;;;;;;4969214;28;20305;-57
2022/03/18 10:13:54;;;;;;;25.27;2.63;;;;;;;;;;4962996;28;20022;-58
2022/03/18 10:16:36;;;;;;;36.20;3.45;;;;;;;;;;4966948;28;20039;-57
2022/03/18 10:19:07;;;;;;;25.50;2.60;;;;;;;;;;4964730;28;20097;-57
2022/03/18 10:21:49;;;;;;;18.42;2.78;;;;;;;;;;4965321;28;20082;-57
2022/03/18 10:24:15;;;;;;;20.00;1.87;;;;;;;;;;4967989;28;20046;-57
2022/03/18 10:26:41;;;;;;;26.65;3.50;;;;;;;;;;4967478;28;20027;-57
2022/03/18 10:29:11;;;;;;;30.45;3.25;;;;;;;;;;4963569;28;20042;-57
2022/03/18 10:31:39;;;;;;;24.05;2.97;;;;;;;;;;4968881;28;20510;-58
2022/03/18 10:37:06;;;;;;;19.38;2.10;;;;;;;;;;4963320;28;20061;-58
2022/03/18 10:39:43;;;;;;;15.55;2.22;;;;;;;;;;4963394;28;20038;-58
2022/03/18 10:42:11;;;;;;;10.10;1.40;;;;;;;;;;4962903;28;20093;-57
2022/03/18 10:44:46;;;;;;;15.32;1.75;;;;;;;;;;4966946;28;20405;-58
2022/03/18 10:47:35;;;;;;;14.82;1.55;;;;;;;;;;4966869;28;20027;-58
2022/03/18 10:50:21;;;;;;;10.32;1.48;;;;;;;;;;4996678;28;20093;-58
2022/03/18 10:52:47;;;;;;;18.33;1.77;;;;;;;;;;4960816;28;20178;-58
2022/03/18 10:55:34;;;;;;;10.77;0.93;;;;;;;;;;4968153;28;20085;-58
2022/03/18 10:58:01;;;;;;;13.55;2.15;;;;;;;;;;4968675;28;20042;-58
2022/03/18 11:00:32;;;;;;;11.55;1.50;;;;;;;;;;4969789;28;20371;-58
2022/03/18 11:02:59;;;;;;;14.23;1.83;;;;;;;;;;4966815;28;20098;-58
2022/03/18 11:05:34;;;;;;;12.23;1.30;;;;;;;;;;4966740;28;20186;-58
2022/03/18 11:08:11;;;;;;;18.42;1.70;;;;;;;;;;4968121;28;20042;-58
2022/03/18 11:13:28;;;;;;;20.48;1.55;;;;;;;;;;4964070;28;20205;-57
2022/03/18 11:15:54;;;;;;;28.55;1.65;;;;;;;;;;4965886;28;20039;-58
2022/03/18 11:18:21;;;;;;;13.50;1.50;;;;;;;;;;4960740;28;20073;-57
2022/03/18 11:20:50;;;;;;;17.13;1.30;;;;;;;;;;4966404;28;20039;-58
2022/03/18 11:23:22;;;;;;;11.80;1.55;;;;;;;;;;4966587;28;20039;-58
2022/03/18 11:25:54;;;;;;;11.10;1.02;;;;;;;;;;4966911;28;20461;-58
2022/03/18 11:28:21;;;;;;;29.23;2.17;;;;;;;;;;4959669;28;20066;-58
2022/03/18 11:30:48;;;;;;;8.35;0.88;;;;;;;;;;4964142;28;20058;-57
2022/03/18 11:33:18;;;;;;;11.68;1.23;;;;;;;;;;4964052;28;20082;-58
2022/03/18 11:35:49;;;;;;;15.05;3.22;;;;;;;;;;4964583;28;20034;-58
2022/03/18 11:38:19;;;;;;;14.75;1.92;;;;;;;;;;4963543;28;20458;-58
2022/03/18 11:41:02;;;;;;;13.35;1.80;;;;;;;;;;4964774;28;20139;-58
2022/03/18 11:43:31;;;;;;;31.35;4.18;;;;;;;;;;4968676;28;20103;-58
2022/03/18 11:46:17;;;;;;;17.17;2.20;;;;;;;;;;4965353;28;20425;-57
2022/03/18 11:49:05;;;;;;;15.10;2.50;;;;;;;;;;4962649;28;20551;-58
2022/03/18 11:51:35;;;;;;;19.67;3.30;;;;;;;;;;4964429;28;20554;-58
2022/03/18 11:54:23;;;;;;;17.90;2.80;;;;;;;;;;4965572;28;20034;-58
2022/03/18 11:56:51;;;;;;;19.50;2.95;;;;;;;;;;4965048;28;20035;-58
2022/03/18 11:59:25;;;;;;;20.02;3.08;;;;;;;;;;4962324;28;20089;-58
2022/03/18 12:01:57;;;;;;;14.13;2.63;;;;;;;;;;4963479;28;20046;-58
2022/03/18 12:04:44;;;;;;;20.07;3.30;;;;;;;;;;4965323;28;20046;-58
2022/03/18 12:07:13;;;;;;;19.77;3.35;;;;;;;;;;4966745;28;20308;-58
2022/03/18 12:09:55;;;;;;;17.08;3.22;;;;;;;;;;4958049;28;20035;-58
2022/03/18 12:12:27;;;;;;;18.15;3.10;;;;;;;;;;4965003;28;20019;-57
2022/03/18 12:14:54;;;;;;;16.98;3.55;;;;;;;;;;4963082;28;20378;-57
2022/03/18 12:17:24;;;;;;;12.63;2.60;;;;;;;;;;4961730;28;20042;-58
2022/03/18 12:19:55;;;;;;;24.10;3.50;;;;;;;;;;4965226;28;20401;-58
2022/03/18 12:22:22;;;;;;;21.00;2.83;;;;;;;;;;4960130;28;20121;-58
2022/03/18 12:24:50;;;;;;;18.52;3.65;;;;;;;;;;4966092;28;20054;-58
2022/03/18 12:27:17;;;;;;;20.30;3.25;;;;;;;;;;4966993;28;20035;-58
2022/03/18 12:29:43;;;;;;;22.92;3.17;;;;;;;;;;4963892;28;20180;-57
2022/03/18 12:32:09;;;;;;;23.13;4.13;;;;;;;;;;4961690;28;20122;-58
2022/03/18 12:34:50;;;;;;;20.35;4.88;;;;;;;;;;4963778;28;20520;-58
2022/03/18 12:37:22;;;;;;;20.67;3.55;;;;;;;;;;4966654;28;20042;-58
2022/03/18 12:40:08;;;;;;;18.92;3.55;;;;;;;;;;4964382;28;20520;-58
2022/03/18 12:42:52;;;;;;;20.33;2.83;;;;;;;;;;4965514;28;20047;-58
2022/03/18 12:45:42;;;;;;;23.08;2.85;;;;;;;;;;4963379;28;20035;-58
2022/03/18 12:48:10;;;;;;;31.67;3.67;;;;;;;;;;4967387;28;20105;-58
2022/03/18 12:50:38;;;;;;;18.70;3.15;;;;;;;;;;4960530;28;20077;-58
2022/03/18 12:53:12;;;;;;;16.15;2.50;;;;;;;;;;4957726;28;20030;-58
2022/03/18 12:55:37;;;;;;;21.48;3.45;;;;;;;;;;4965587;28;20037;-58
2022/03/18 12:58:04;;;;;;;21.73;2.78;;;;;;;;;;4967059;28;20414;-58
2022/03/18 13:00:39;;;;;;;22.98;3.05;;;;;;;;;;4964323;28;20050;-58
2022/03/18 13:03:06;;;;;;;19.77;2.50;;;;;;;;;;4964083;28;20051;-58
2022/03/18 13:05:32;;;;;;;22.70;3.17;;;;;;;;;;4963086;28;20525;-58
2022/03/18 13:07:58;;;;;;;16.75;2.67;;;;;;;;;;4966956;28;20038;-58
2022/03/18 13:10:23;;;;;;;19.02;2.97;;;;;;;;;;4966863;28;20409;-58
2022/03/18 13:12:49;;;;;;;15.52;2.28;;;;;;;;;;4956350;28;20040;-58
2022/03/18 13:15:20;;;;;;;18.60;3.08;;;;;;;;;;4961128;28;20053;-58
2022/03/18 13:17:47;;;;;;;20.95;2.45;;;;;;;;;;4965854;28;20035;-58
2022/03/18 13:20:26;;;;;;;16.40;1.90;;;;;;;;;;4963902;28;20030;-58
2022/03/18 13:22:54;;;;;;;19.77;2.53;;;;;;;;;;4964408;28;20038;-58
2022/03/18 13:25:21;;;;;;;18.00;2.92;;;;;;;;;;4965046;28;20049;-59
2022/03/18 13:27:46;;;;;;;15.43;4.28;;;;;;;;;;4966557;28;20042;-59
2022/03/18 13:32:57;;;;;;;19.38;2.63;;;;;;;;;;4965917;28;20102;-59
2022/03/18 13:35:27;;;;;;;13.20;2.40;;;;;;;;;;4965525;28;20026;-59
2022/03/18 13:38:22;;;;;;;18.42;3.13;;;;;;;;;;4957673;28;20030;-58
2022/03/18 13:40:58;;;;;;;17.67;2.60;;;;;;;;;;4967336;28;20510;-59
2022/03/18 13:43:34;;;;;;;19.42;3.03;;;;;;;;;;4967008;28;20035;-59
2022/03/18 13:46:17;;;;;;;17.00;2.60;;;;;;;;;;4968697;28;20113;-59
2022/03/18 13:48:44;;;;;;;21.45;2.78;;;;;;;;;;4965402;28;20022;-58
2022/03/18 13:51:12;;;;;;;20.48;3.08;;;;;;;;;;4962294;28;20034;-58
2022/03/18 13:53:42;;;;;;;23.67;2.78;;;;;;;;;;4965162;28;20029;-59
2022/03/18 13:56:26;;;;;;;19.25;2.95;;;;;;;;;;4966882;28;20039;-58
2022/03/18 13:58:51;;;;;;;15.45;2.70;;;;;;;;;;4960832;28;20035;-58
2022/03/18 14:01:18;;;;;;;31.55;3.15;;;;;;;;;;4965108;28;20081;-58
2022/03/18 14:03:53;;;;;;;23.17;2.95;;;;;;;;;;4963985;28;20118;-58
2022/03/18 14:06:19;;;;;;;20.02;2.38;;;;;;;;;;4967826;28;20502;-58
2022/03/18 14:08:45;;;;;;;25.25;3.33;;;;;;;;;;4965931;28;20061;-58
2022/03/18 14:14:31;;;;;;;20.42;2.75;;;;;;;;;;4968434;28;20457;-59
2022/03/18 14:17:14;;;;;;;17.08;2.63;;;;;;;;;;4971084;28;20027;-58
2022/03/18 14:20:12;;;;;;;23.42;3.17;;;;;;;;;;4964661;28;20030;-58
2022/03/18 14:22:39;;;;;;;15.05;2.17;;;;;;;;;;4965281;28;20030;-58
2022/03/18 14:25:14;;;;;;;19.75;2.75;;;;;;;;;;4969382;28;20045;-58
2022/03/18 14:27:41;;;;;;;23.23;2.80;;;;;;;;;;4962212;28;20114;-58
2022/03/18 14:30:09;;;;;;;19.50;2.47;;;;;;;;;;4968979;28;20489;-58
2022/03/18 14:32:35;;;;;;;19.25;2.63;;;;;;;;;;4969108;28;20089;-58
2022/03/18 14:35:02;;;;;;;20.02;3.28;;;;;;;;;;4966742;28;20035;-58
2022/03/18 14:37:31;;;;;;;17.67;3.13;;;;;;;;;;4968128;28;20042;-58
2022/03/18 14:39:59;;;;;;;19.55;2.83;;;;;;;;;;4962775;28;20069;-58
2022/03/18 14:42:26;;;;;;;17.17;2.20;;;;;;;;;;4964668;28;20042;-58
2022/03/18 14:44:52;;;;;;;21.35;2.92;;;;;;;;;;4966283;28;20371;-58
2022/03/18 14:47:18;;;;;;;19.35;3.05;;;;;;;;;;4967107;28;20517;-58
2022/03/18 14:49:43;;;;;;;26.67;3.15;;;;;;;;;;4970613;28;20026;-58
2022/03/18 14:52:09;;;;;;;21.58;3.92;;;;;;;;;;4965368;28;20126;-58
2022/03/18 14:57:19;;;;;;;14.38;2.83;;;;;;;;;;4959660;28;20108;-58
2022/03/18 14:59:53;;;;;;;22.70;3.05;;;;;;;;;;4966268;28;20035;-58